aviador You're here:

GCTS Decoded Metar

TENERIFE in SPAIN
Report Time2018-01-19 05:00:00
UTC Time2018-01-19 05:21:49
Flight Rules vfr VFR
Wind360° at 06 kt
W.Decomp.*RWY 08: 1.7 kt HW 5.8 kt LCW
Visibility9999 m
Phenomena:N/A
Clouds:Few 030 Hf
Expected CloudBase > 2,000 ft AGL from Temp-Dew spread
CeilingNone
Temp15°C (ISA 0)
Dew Point10°C (72% RH)
AAT12.9°C
QNH1022 hPa
Density Alt154 ft
Elevation236 ft
Report Wrong Elevation
Raw Report
GCTS 190500Z 36006KT 9999 FEW030 15/10 Q1022 NOSIG=

Extra information for GCTS:More info

Metar Taf Metar & Taf Last 4 Metars F.Rules Stats Wind Profile Meteogram Temp Stats Airport Information Weather charts Add Link Nearby VenuesMetar ALERT Operation Metar Decoded Social comments